Terminal Aerodrome Forecast
Issued by NWS

Home | Current Version | Previous Version | Text Only | Print | Product List | Glossary Off
Versions: 1 2 3 4 5 6 7 8 9 10 11 12 13 14 15 16 17 18 19 20 21 22

000
FTUS43 KMPX 171500 AAA
TAFAXN
TAF AMD
KAXN 171505Z 1715/1812 11007KT 6SM BR OVC003
      TEMPO 1716/1717 SCT005 OVC012
     FM171700 11007KT 6SM BR SCT006 OVC012
     FM171830 12007KT P6SM OVC025
     FM172000 10006KT P6SM SCT020 OVC050
     FM180500 14005KT 4SM BR SCT003 OVC010 PROB30 1809/1812 4SM TS
      BKN008CB=

USA.gov is the U.S. government's official web portal to all federal, state and local government web resources and services.